sensor_id;sensor_type;location;lat;lon;timestamp;P1;durP1;ratioP1;P2;durP2;ratioP2
75691;SDS011;64307;52.508;6.090;2023-02-10T00:01:19;25.90;;;11.75;;
75691;SDS011;64307;52.508;6.090;2023-02-10T00:03:46;32.17;;;13.13;;
75691;SDS011;64307;52.508;6.090;2023-02-10T00:06:13;31.08;;;13.32;;
75691;SDS011;64307;52.508;6.090;2023-02-10T00:08:39;22.23;;;11.15;;
75691;SDS011;64307;52.508;6.090;2023-02-10T00:11:07;31.35;;;12.73;;
75691;SDS011;64307;52.508;6.090;2023-02-10T00:13:35;28.85;;;12.43;;
75691;SDS011;64307;52.508;6.090;2023-02-10T00:16:01;28.98;;;12.55;;
75691;SDS011;64307;52.508;6.090;2023-02-10T00:18:28;27.08;;;13.52;;
75691;SDS011;64307;52.508;6.090;2023-02-10T00:20:54;27.38;;;11.77;;
75691;SDS011;64307;52.508;6.090;2023-02-10T00:23:19;29.30;;;12.90;;
75691;SDS011;64307;52.508;6.090;2023-02-10T00:25:45;29.52;;;12.02;;
75691;SDS011;64307;52.508;6.090;2023-02-10T00:28:10;22.20;;;11.70;;
75691;SDS011;64307;52.508;6.090;2023-02-10T00:30:36;24.15;;;11.80;;
75691;SDS011;64307;52.508;6.090;2023-02-10T00:33:02;23.83;;;11.75;;
75691;SDS011;64307;52.508;6.090;2023-02-10T00:35:27;25.02;;;11.30;;
75691;SDS011;64307;52.508;6.090;2023-02-10T00:37:52;23.47;;;11.13;;
75691;SDS011;64307;52.508;6.090;2023-02-10T00:40:18;25.90;;;10.70;;
75691;SDS011;64307;52.508;6.090;2023-02-10T00:42:43;27.52;;;12.18;;
75691;SDS011;64307;52.508;6.090;2023-02-10T00:45:08;21.98;;;11.88;;
75691;SDS011;64307;52.508;6.090;2023-02-10T00:47:34;23.65;;;11.18;;
75691;SDS011;64307;52.508;6.090;2023-02-10T00:49:59;24.20;;;10.52;;
75691;SDS011;64307;52.508;6.090;2023-02-10T00:52:25;32.08;;;11.27;;
75691;SDS011;64307;52.508;6.090;2023-02-10T00:54:50;29.05;;;10.25;;
75691;SDS011;64307;52.508;6.090;2023-02-10T00:57:15;23.52;;;10.93;;
75691;SDS011;64307;52.508;6.090;2023-02-10T00:59:41;19.73;;;10.48;;
75691;SDS011;64307;52.508;6.090;2023-02-10T01:02:07;27.30;;;10.48;;
75691;SDS011;64307;52.508;6.090;2023-02-10T01:04:32;23.48;;;10.63;;
75691;SDS011;64307;52.508;6.090;2023-02-10T01:06:57;22.15;;;10.68;;
75691;SDS011;64307;52.508;6.090;2023-02-10T01:09:23;25.58;;;10.63;;
75691;SDS011;64307;52.508;6.090;2023-02-10T01:11:48;23.15;;;10.23;;
75691;SDS011;64307;52.508;6.090;2023-02-10T01:14:14;19.30;;;9.85;;
75691;SDS011;64307;52.508;6.090;2023-02-10T01:16:39;21.10;;;9.13;;
75691;SDS011;64307;52.508;6.090;2023-02-10T01:19:05;19.15;;;9.07;;
75691;SDS011;64307;52.508;6.090;2023-02-10T01:21:31;20.30;;;8.38;;
75691;SDS011;64307;52.508;6.090;2023-02-10T01:23:56;21.45;;;8.43;;
75691;SDS011;64307;52.508;6.090;2023-02-10T01:26:22;19.10;;;8.57;;
75691;SDS011;64307;52.508;6.090;2023-02-10T01:28:47;18.48;;;8.90;;
75691;SDS011;64307;52.508;6.090;2023-02-10T01:31:14;21.33;;;9.10;;
75691;SDS011;64307;52.508;6.090;2023-02-10T01:33:41;17.80;;;8.32;;
75691;SDS011;64307;52.508;6.090;2023-02-10T01:36:07;24.80;;;8.60;;
75691;SDS011;64307;52.508;6.090;2023-02-10T01:38:35;19.10;;;8.30;;
75691;SDS011;64307;52.508;6.090;2023-02-10T01:41:01;22.63;;;10.05;;
75691;SDS011;64307;52.508;6.090;2023-02-10T01:43:26;19.63;;;8.80;;
75691;SDS011;64307;52.508;6.090;2023-02-10T01:45:52;20.98;;;9.95;;
75691;SDS011;64307;52.508;6.090;2023-02-10T01:48:17;22.38;;;10.57;;
75691;SDS011;64307;52.508;6.090;2023-02-10T01:53:24;25.73;;;10.13;;
75691;SDS011;64307;52.508;6.090;2023-02-10T01:55:50;18.30;;;9.02;;
75691;SDS011;64307;52.508;6.090;2023-02-10T01:58:20;25.20;;;9.70;;
75691;SDS011;64307;52.508;6.090;2023-02-10T02:00:48;22.08;;;9.88;;
75691;SDS011;64307;52.508;6.090;2023-02-10T02:03:13;21.37;;;10.37;;
75691;SDS011;64307;52.508;6.090;2023-02-10T02:05:40;27.20;;;11.07;;
75691;SDS011;64307;52.508;6.090;2023-02-10T02:08:08;19.60;;;9.68;;
75691;SDS011;64307;52.508;6.090;2023-02-10T02:19:11;17.27;;;7.82;;
75691;SDS011;64307;52.508;6.090;2023-02-10T02:26:55;17.25;;;6.60;;
75691;SDS011;64307;52.508;6.090;2023-02-10T02:32:21;20.45;;;6.88;;
75691;SDS011;64307;52.508;6.090;2023-02-10T02:34:55;18.02;;;6.80;;
75691;SDS011;64307;52.508;6.090;2023-02-10T02:37:39;19.95;;;6.90;;
75691;SDS011;64307;52.508;6.090;2023-02-10T02:40:07;14.10;;;6.82;;
75691;SDS011;64307;52.508;6.090;2023-02-10T02:42:34;18.77;;;6.68;;
75691;SDS011;64307;52.508;6.090;2023-02-10T02:45:05;17.80;;;6.20;;
75691;SDS011;64307;52.508;6.090;2023-02-10T03:01:07;12.98;;;6.20;;
75691;SDS011;64307;52.508;6.090;2023-02-10T03:03:50;16.25;;;5.80;;
75691;SDS011;64307;52.508;6.090;2023-02-10T03:06:18;13.90;;;5.75;;
75691;SDS011;64307;52.508;6.090;2023-02-10T03:08:43;18.65;;;6.10;;
75691;SDS011;64307;52.508;6.090;2023-02-10T03:11:08;18.10;;;6.38;;
75691;SDS011;64307;52.508;6.090;2023-02-10T03:13:34;11.52;;;6.45;;
75691;SDS011;64307;52.508;6.090;2023-02-10T03:15:59;16.25;;;6.78;;
75691;SDS011;64307;52.508;6.090;2023-02-10T03:18:25;18.05;;;6.03;;
75691;SDS011;64307;52.508;6.090;2023-02-10T03:20:50;16.33;;;5.95;;
75691;SDS011;64307;52.508;6.090;2023-02-10T03:23:16;19.50;;;6.47;;
75691;SDS011;64307;52.508;6.090;2023-02-10T03:25:43;16.92;;;5.97;;
75691;SDS011;64307;52.508;6.090;2023-02-10T03:28:09;18.60;;;6.28;;
75691;SDS011;64307;52.508;6.090;2023-02-10T03:30:36;12.35;;;5.43;;
75691;SDS011;64307;52.508;6.090;2023-02-10T03:33:03;16.52;;;5.78;;
75691;SDS011;64307;52.508;6.090;2023-02-10T03:35:28;14.23;;;6.40;;
75691;SDS011;64307;52.508;6.090;2023-02-10T03:37:53;18.35;;;5.60;;
75691;SDS011;64307;52.508;6.090;2023-02-10T03:40:19;14.38;;;6.38;;
75691;SDS011;64307;52.508;6.090;2023-02-10T03:42:44;16.55;;;7.40;;
75691;SDS011;64307;52.508;6.090;2023-02-10T03:45:09;13.23;;;5.97;;
75691;SDS011;64307;52.508;6.090;2023-02-10T03:47:35;15.90;;;5.53;;
75691;SDS011;64307;52.508;6.090;2023-02-10T03:50:01;14.75;;;6.18;;
75691;SDS011;64307;52.508;6.090;2023-02-10T03:52:27;13.30;;;5.18;;
75691;SDS011;64307;52.508;6.090;2023-02-10T03:54:52;12.90;;;4.88;;
75691;SDS011;64307;52.508;6.090;2023-02-10T03:57:17;18.17;;;5.80;;
75691;SDS011;64307;52.508;6.090;2023-02-10T03:59:43;11.38;;;5.10;;
75691;SDS011;64307;52.508;6.090;2023-02-10T04:02:09;11.18;;;5.10;;
75691;SDS011;64307;52.508;6.090;2023-02-10T04:04:34;14.07;;;5.95;;
75691;SDS011;64307;52.508;6.090;2023-02-10T04:07:01;16.52;;;6.07;;
75691;SDS011;64307;52.508;6.090;2023-02-10T04:09:27;13.15;;;5.68;;
75691;SDS011;64307;52.508;6.090;2023-02-10T04:11:53;20.05;;;5.90;;
75691;SDS011;64307;52.508;6.090;2023-02-10T04:14:18;13.70;;;5.90;;
75691;SDS011;64307;52.508;6.090;2023-02-10T04:16:43;14.55;;;6.00;;
75691;SDS011;64307;52.508;6.090;2023-02-10T04:19:09;22.20;;;6.80;;
75691;SDS011;64307;52.508;6.090;2023-02-10T04:21:34;15.77;;;6.18;;
75691;SDS011;64307;52.508;6.090;2023-02-10T04:23:59;14.80;;;6.28;;
75691;SDS011;64307;52.508;6.090;2023-02-10T04:26:25;13.32;;;5.70;;
75691;SDS011;64307;52.508;6.090;2023-02-10T04:28:50;13.85;;;6.25;;
75691;SDS011;64307;52.508;6.090;2023-02-10T04:31:16;17.67;;;5.65;;
75691;SDS011;64307;52.508;6.090;2023-02-10T04:33:42;13.07;;;5.50;;
75691;SDS011;64307;52.508;6.090;2023-02-10T04:36:08;13.43;;;6.20;;
75691;SDS011;64307;52.508;6.090;2023-02-10T04:38:33;15.32;;;5.70;;
75691;SDS011;64307;52.508;6.090;2023-02-10T04:41:01;16.80;;;6.45;;
75691;SDS011;64307;52.508;6.090;2023-02-10T04:43:28;15.23;;;5.90;;
75691;SDS011;64307;52.508;6.090;2023-02-10T04:45:53;14.27;;;5.63;;
75691;SDS011;64307;52.508;6.090;2023-02-10T04:48:18;16.33;;;5.57;;
75691;SDS011;64307;52.508;6.090;2023-02-10T04:50:46;12.57;;;6.15;;
75691;SDS011;64307;52.508;6.090;2023-02-10T04:53:11;17.70;;;6.07;;
75691;SDS011;64307;52.508;6.090;2023-02-10T04:55:36;18.38;;;6.45;;
75691;SDS011;64307;52.508;6.090;2023-02-10T04:58:02;14.95;;;6.18;;
75691;SDS011;64307;52.508;6.090;2023-02-10T05:00:27;16.98;;;6.85;;
75691;SDS011;64307;52.508;6.090;2023-02-10T05:02:53;13.57;;;5.85;;
75691;SDS011;64307;52.508;6.090;2023-02-10T05:05:18;15.18;;;5.80;;
75691;SDS011;64307;52.508;6.090;2023-02-10T05:07:44;17.52;;;6.70;;
75691;SDS011;64307;52.508;6.090;2023-02-10T05:10:09;13.80;;;6.15;;
75691;SDS011;64307;52.508;6.090;2023-02-10T05:12:35;14.77;;;6.13;;
75691;SDS011;64307;52.508;6.090;2023-02-10T05:15:00;15.65;;;6.13;;
75691;SDS011;64307;52.508;6.090;2023-02-10T05:17:26;15.98;;;6.13;;
75691;SDS011;64307;52.508;6.090;2023-02-10T05:19:51;13.35;;;5.95;;
75691;SDS011;64307;52.508;6.090;2023-02-10T05:22:16;15.97;;;7.00;;
75691;SDS011;64307;52.508;6.090;2023-02-10T05:24:41;16.17;;;6.43;;
75691;SDS011;64307;52.508;6.090;2023-02-10T05:27:07;14.55;;;6.38;;
75691;SDS011;64307;52.508;6.090;2023-02-10T05:29:32;16.23;;;7.38;;
75691;SDS011;64307;52.508;6.090;2023-02-10T05:31:58;14.32;;;6.50;;
75691;SDS011;64307;52.508;6.090;2023-02-10T05:34:23;16.10;;;6.97;;
75691;SDS011;64307;52.508;6.090;2023-02-10T05:36:49;15.27;;;7.03;;
75691;SDS011;64307;52.508;6.090;2023-02-10T05:39:15;17.10;;;7.13;;
75691;SDS011;64307;52.508;6.090;2023-02-10T05:41:49;16.63;;;7.53;;
75691;SDS011;64307;52.508;6.090;2023-02-10T05:44:19;21.10;;;8.40;;
75691;SDS011;64307;52.508;6.090;2023-02-10T05:46:45;16.52;;;6.57;;
75691;SDS011;64307;52.508;6.090;2023-02-10T05:49:10;16.85;;;8.27;;
75691;SDS011;64307;52.508;6.090;2023-02-10T05:51:35;16.30;;;7.72;;
75691;SDS011;64307;52.508;6.090;2023-02-10T05:54:01;19.10;;;8.05;;
75691;SDS011;64307;52.508;6.090;2023-02-10T05:56:26;19.67;;;8.60;;
75691;SDS011;64307;52.508;6.090;2023-02-10T05:58:51;17.52;;;8.90;;
75691;SDS011;64307;52.508;6.090;2023-02-10T06:01:17;17.42;;;7.78;;
75691;SDS011;64307;52.508;6.090;2023-02-10T06:03:42;17.88;;;8.75;;
75691;SDS011;64307;52.508;6.090;2023-02-10T06:06:07;20.37;;;8.33;;
75691;SDS011;64307;52.508;6.090;2023-02-10T06:08:33;21.45;;;9.43;;
75691;SDS011;64307;52.508;6.090;2023-02-10T06:10:58;19.52;;;8.68;;
75691;SDS011;64307;52.508;6.090;2023-02-10T06:13:23;22.63;;;9.50;;
75691;SDS011;64307;52.508;6.090;2023-02-10T06:15:49;22.43;;;8.73;;
75691;SDS011;64307;52.508;6.090;2023-02-10T06:18:14;21.25;;;8.68;;
75691;SDS011;64307;52.508;6.090;2023-02-10T06:20:39;21.30;;;9.40;;
75691;SDS011;64307;52.508;6.090;2023-02-10T06:23:05;24.92;;;9.45;;
75691;SDS011;64307;52.508;6.090;2023-02-10T06:25:30;19.02;;;9.18;;
75691;SDS011;64307;52.508;6.090;2023-02-10T06:27:56;16.95;;;8.85;;
75691;SDS011;64307;52.508;6.090;2023-02-10T06:30:22;19.98;;;8.57;;
75691;SDS011;64307;52.508;6.090;2023-02-10T06:32:47;15.40;;;8.23;;
75691;SDS011;64307;52.508;6.090;2023-02-10T06:35:13;24.17;;;9.52;;
75691;SDS011;64307;52.508;6.090;2023-02-10T06:37:38;16.75;;;8.50;;
75691;SDS011;64307;52.508;6.090;2023-02-10T06:40:04;22.08;;;9.13;;
75691;SDS011;64307;52.508;6.090;2023-02-10T06:42:30;22.33;;;10.13;;
75691;SDS011;64307;52.508;6.090;2023-02-10T06:44:56;23.27;;;9.40;;
75691;SDS011;64307;52.508;6.090;2023-02-10T06:47:21;24.05;;;9.85;;
75691;SDS011;64307;52.508;6.090;2023-02-10T06:49:46;21.00;;;8.30;;
75691;SDS011;64307;52.508;6.090;2023-02-10T06:52:12;20.65;;;9.60;;
75691;SDS011;64307;52.508;6.090;2023-02-10T06:54:37;22.80;;;9.40;;
75691;SDS011;64307;52.508;6.090;2023-02-10T06:57:02;27.45;;;9.55;;
75691;SDS011;64307;52.508;6.090;2023-02-10T06:59:28;19.98;;;9.55;;
75691;SDS011;64307;52.508;6.090;2023-02-10T07:01:53;24.80;;;9.27;;
75691;SDS011;64307;52.508;6.090;2023-02-10T07:04:25;19.35;;;9.05;;
75691;SDS011;64307;52.508;6.090;2023-02-10T07:06:50;20.63;;;8.77;;
75691;SDS011;64307;52.508;6.090;2023-02-10T07:09:15;29.77;;;11.30;;
75691;SDS011;64307;52.508;6.090;2023-02-10T07:11:40;22.40;;;10.13;;
75691;SDS011;64307;52.508;6.090;2023-02-10T07:14:07;20.23;;;9.88;;
75691;SDS011;64307;52.508;6.090;2023-02-10T07:16:32;24.10;;;10.25;;
75691;SDS011;64307;52.508;6.090;2023-02-10T07:18:58;24.83;;;9.93;;
75691;SDS011;64307;52.508;6.090;2023-02-10T07:21:24;24.70;;;9.65;;
75691;SDS011;64307;52.508;6.090;2023-02-10T07:23:49;22.90;;;10.33;;
75691;SDS011;64307;52.508;6.090;2023-02-10T07:26:15;20.97;;;9.83;;
75691;SDS011;64307;52.508;6.090;2023-02-10T07:28:43;26.27;;;10.27;;
75691;SDS011;64307;52.508;6.090;2023-02-10T07:31:09;24.52;;;9.35;;
75691;SDS011;64307;52.508;6.090;2023-02-10T07:33:34;25.30;;;10.63;;
75691;SDS011;64307;52.508;6.090;2023-02-10T07:36:00;22.80;;;10.63;;
75691;SDS011;64307;52.508;6.090;2023-02-10T07:38:27;27.77;;;10.13;;
75691;SDS011;64307;52.508;6.090;2023-02-10T07:40:52;24.95;;;10.95;;
75691;SDS011;64307;52.508;6.090;2023-02-10T07:43:18;25.17;;;10.30;;
75691;SDS011;64307;52.508;6.090;2023-02-10T07:45:43;23.17;;;10.17;;
75691;SDS011;64307;52.508;6.090;2023-02-10T07:48:08;27.13;;;10.60;;
75691;SDS011;64307;52.508;6.090;2023-02-10T07:50:34;26.30;;;10.25;;
75691;SDS011;64307;52.508;6.090;2023-02-10T07:53:00;27.23;;;10.75;;
75691;SDS011;64307;52.508;6.090;2023-02-10T07:55:25;24.90;;;10.13;;
75691;SDS011;64307;52.508;6.090;2023-02-10T07:57:51;24.47;;;11.17;;
75691;SDS011;64307;52.508;6.090;2023-02-10T08:00:17;24.42;;;11.18;;
75691;SDS011;64307;52.508;6.090;2023-02-10T08:02:44;26.10;;;11.40;;
75691;SDS011;64307;52.508;6.090;2023-02-10T08:05:09;23.40;;;10.30;;
75691;SDS011;64307;52.508;6.090;2023-02-10T08:07:35;22.35;;;11.15;;
75691;SDS011;64307;52.508;6.090;2023-02-10T08:10:00;21.35;;;11.05;;
75691;SDS011;64307;52.508;6.090;2023-02-10T08:12:26;22.55;;;10.55;;
75691;SDS011;64307;52.508;6.090;2023-02-10T08:14:51;21.75;;;10.50;;
75691;SDS011;64307;52.508;6.090;2023-02-10T08:17:16;25.58;;;11.48;;
75691;SDS011;64307;52.508;6.090;2023-02-10T08:19:42;23.52;;;10.73;;
75691;SDS011;64307;52.508;6.090;2023-02-10T08:22:07;28.25;;;12.57;;
75691;SDS011;64307;52.508;6.090;2023-02-10T08:24:33;23.27;;;10.68;;
75691;SDS011;64307;52.508;6.090;2023-02-10T08:26:58;25.50;;;10.93;;
75691;SDS011;64307;52.508;6.090;2023-02-10T08:29:24;24.65;;;11.13;;
75691;SDS011;64307;52.508;6.090;2023-02-10T08:31:49;25.20;;;11.25;;
75691;SDS011;64307;52.508;6.090;2023-02-10T08:34:16;22.67;;;10.90;;
75691;SDS011;64307;52.508;6.090;2023-02-10T08:36:43;26.25;;;11.00;;
75691;SDS011;64307;52.508;6.090;2023-02-10T08:39:09;23.42;;;11.10;;
75691;SDS011;64307;52.508;6.090;2023-02-10T08:44:00;20.47;;;9.37;;
75691;SDS011;64307;52.508;6.090;2023-02-10T08:46:26;25.90;;;11.53;;
75691;SDS011;64307;52.508;6.090;2023-02-10T08:48:51;21.13;;;10.00;;
75691;SDS011;64307;52.508;6.090;2023-02-10T08:51:17;22.52;;;10.43;;
75691;SDS011;64307;52.508;6.090;2023-02-10T08:53:43;23.55;;;10.88;;
75691;SDS011;64307;52.508;6.090;2023-02-10T08:58:35;21.48;;;10.32;;
75691;SDS011;64307;52.508;6.090;2023-02-10T09:01:01;20.63;;;10.43;;
75691;SDS011;64307;52.508;6.090;2023-02-10T09:03:32;20.65;;;9.75;;
75691;SDS011;64307;52.508;6.090;2023-02-10T09:05:57;24.53;;;9.60;;
75691;SDS011;64307;52.508;6.090;2023-02-10T09:10:47;19.97;;;9.77;;
75691;SDS011;64307;52.508;6.090;2023-02-10T09:15:39;22.73;;;9.10;;
75691;SDS011;64307;52.508;6.090;2023-02-10T09:18:06;21.33;;;9.05;;
75691;SDS011;64307;52.508;6.090;2023-02-10T09:20:32;17.60;;;9.02;;
75691;SDS011;64307;52.508;6.090;2023-02-10T09:22:58;21.70;;;8.98;;
75691;SDS011;64307;52.508;6.090;2023-02-10T09:25:23;21.27;;;8.48;;
75691;SDS011;64307;52.508;6.090;2023-02-10T09:27:50;16.65;;;7.90;;
75691;SDS011;64307;52.508;6.090;2023-02-10T09:30:17;18.00;;;8.88;;
75691;SDS011;64307;52.508;6.090;2023-02-10T09:32:42;23.92;;;9.13;;
75691;SDS011;64307;52.508;6.090;2023-02-10T09:35:07;17.13;;;8.57;;
75691;SDS011;64307;52.508;6.090;2023-02-10T09:37:32;20.45;;;8.18;;
75691;SDS011;64307;52.508;6.090;2023-02-10T09:39:58;13.97;;;7.80;;
75691;SDS011;64307;52.508;6.090;2023-02-10T09:42:29;21.20;;;8.45;;
75691;SDS011;64307;52.508;6.090;2023-02-10T09:45:15;15.95;;;8.23;;
75691;SDS011;64307;52.508;6.090;2023-02-10T09:55:30;14.88;;;7.55;;
75691;SDS011;64307;52.508;6.090;2023-02-10T10:00:43;13.75;;;6.47;;
75691;SDS011;64307;52.508;6.090;2023-02-10T10:03:14;13.90;;;6.63;;
75691;SDS011;64307;52.508;6.090;2023-02-10T10:05:46;14.02;;;6.85;;
75691;SDS011;64307;52.508;6.090;2023-02-10T10:08:38;17.58;;;7.07;;
75691;SDS011;64307;52.508;6.090;2023-02-10T10:11:09;14.95;;;6.82;;
75691;SDS011;64307;52.508;6.090;2023-02-10T10:14:00;16.35;;;6.50;;
75691;SDS011;64307;52.508;6.090;2023-02-10T10:19:15;15.52;;;7.93;;
75691;SDS011;64307;52.508;6.090;2023-02-10T10:21:48;13.50;;;6.88;;
75691;SDS011;64307;52.508;6.090;2023-02-10T10:27:05;16.70;;;6.85;;
75691;SDS011;64307;52.508;6.090;2023-02-10T10:32:13;13.27;;;6.32;;
75691;SDS011;64307;52.508;6.090;2023-02-10T10:34:52;13.35;;;6.40;;
75691;SDS011;64307;52.508;6.090;2023-02-10T10:37:20;13.43;;;6.70;;
75691;SDS011;64307;52.508;6.090;2023-02-10T10:39:52;15.70;;;6.35;;
75691;SDS011;64307;52.508;6.090;2023-02-10T10:45:19;14.27;;;6.03;;
75691;SDS011;64307;52.508;6.090;2023-02-10T10:48:00;14.13;;;6.25;;
75691;SDS011;64307;52.508;6.090;2023-02-10T10:50:33;12.05;;;6.43;;
75691;SDS011;64307;52.508;6.090;2023-02-10T10:52:59;13.25;;;6.90;;
75691;SDS011;64307;52.508;6.090;2023-02-10T10:58:21;14.07;;;6.35;;
75691;SDS011;64307;52.508;6.090;2023-02-10T11:00:54;13.27;;;6.65;;
75691;SDS011;64307;52.508;6.090;2023-02-10T11:03:22;14.85;;;7.07;;
75691;SDS011;64307;52.508;6.090;2023-02-10T11:08:38;14.10;;;6.50;;
75691;SDS011;64307;52.508;6.090;2023-02-10T11:11:09;16.85;;;6.50;;
75691;SDS011;64307;52.508;6.090;2023-02-10T11:13:38;13.20;;;6.10;;
75691;SDS011;64307;52.508;6.090;2023-02-10T11:16:06;12.50;;;5.78;;
75691;SDS011;64307;52.508;6.090;2023-02-10T11:18:35;15.73;;;5.80;;
75691;SDS011;64307;52.508;6.090;2023-02-10T11:21:05;14.45;;;5.53;;
75691;SDS011;64307;52.508;6.090;2023-02-10T11:23:35;16.25;;;5.97;;
75691;SDS011;64307;52.508;6.090;2023-02-10T11:26:17;15.35;;;6.65;;
75691;SDS011;64307;52.508;6.090;2023-02-10T11:28:49;14.35;;;5.45;;
75691;SDS011;64307;52.508;6.090;2023-02-10T11:33:57;14.65;;;5.40;;
75691;SDS011;64307;52.508;6.090;2023-02-10T11:36:30;14.57;;;5.65;;
75691;SDS011;64307;52.508;6.090;2023-02-10T11:39:14;14.38;;;6.60;;
75691;SDS011;64307;52.508;6.090;2023-02-10T11:44:58;11.05;;;4.70;;
75691;SDS011;64307;52.508;6.090;2023-02-10T11:47:27;15.07;;;5.57;;
75691;SDS011;64307;52.508;6.090;2023-02-10T11:49:57;13.88;;;5.03;;
75691;SDS011;64307;52.508;6.090;2023-02-10T11:52:24;11.75;;;4.50;;
75691;SDS011;64307;52.508;6.090;2023-02-10T11:54:52;15.05;;;5.18;;
75691;SDS011;64307;52.508;6.090;2023-02-10T12:08:56;14.48;;;3.97;;
75691;SDS011;64307;52.508;6.090;2023-02-10T12:11:34;10.27;;;3.83;;
75691;SDS011;64307;52.508;6.090;2023-02-10T12:16:55;14.63;;;4.05;;
75691;SDS011;64307;52.508;6.090;2023-02-10T12:36:58;11.77;;;3.78;;
75691;SDS011;64307;52.508;6.090;2023-02-10T12:39:35;15.93;;;4.55;;
75691;SDS011;64307;52.508;6.090;2023-02-10T12:45:18;15.93;;;4.68;;
75691;SDS011;64307;52.508;6.090;2023-02-10T12:48:02;11.68;;;3.80;;
75691;SDS011;64307;52.508;6.090;2023-02-10T12:53:26;15.48;;;4.72;;
75691;SDS011;64307;52.508;6.090;2023-02-10T12:56:01;11.93;;;4.70;;
75691;SDS011;64307;52.508;6.090;2023-02-10T12:58:40;16.30;;;4.15;;
75691;SDS011;64307;52.508;6.090;2023-02-10T13:03:46;10.88;;;3.55;;
75691;SDS011;64307;52.508;6.090;2023-02-10T13:06:17;9.63;;;3.50;;
75691;SDS011;64307;52.508;6.090;2023-02-10T13:09:17;12.10;;;3.88;;
75691;SDS011;64307;52.508;6.090;2023-02-10T13:12:06;11.02;;;3.58;;
75691;SDS011;64307;52.508;6.090;2023-02-10T13:14:39;10.18;;;4.13;;
75691;SDS011;64307;52.508;6.090;2023-02-10T13:17:06;18.67;;;4.72;;
75691;SDS011;64307;52.508;6.090;2023-02-10T13:19:37;14.68;;;4.28;;
75691;SDS011;64307;52.508;6.090;2023-02-10T13:25:12;11.57;;;4.72;;
75691;SDS011;64307;52.508;6.090;2023-02-10T13:36:07;15.75;;;5.45;;
75691;SDS011;64307;52.508;6.090;2023-02-10T13:38:38;15.50;;;5.22;;
75691;SDS011;64307;52.508;6.090;2023-02-10T13:43:53;15.90;;;5.53;;
75691;SDS011;64307;52.508;6.090;2023-02-10T13:46:23;17.48;;;5.40;;
75691;SDS011;64307;52.508;6.090;2023-02-10T13:48:54;15.52;;;5.38;;
75691;SDS011;64307;52.508;6.090;2023-02-10T13:51:29;13.52;;;5.53;;
75691;SDS011;64307;52.508;6.090;2023-02-10T13:53:57;14.18;;;4.88;;
75691;SDS011;64307;52.508;6.090;2023-02-10T13:58:49;17.73;;;5.95;;
75691;SDS011;64307;52.508;6.090;2023-02-10T14:03:55;12.63;;;4.65;;
75691;SDS011;64307;52.508;6.090;2023-02-10T14:09:01;8.93;;;4.32;;
75691;SDS011;64307;52.508;6.090;2023-02-10T14:11:47;16.20;;;3.65;;
75691;SDS011;64307;52.508;6.090;2023-02-10T14:14:36;12.85;;;3.38;;
75691;SDS011;64307;52.508;6.090;2023-02-10T14:17:17;11.27;;;3.47;;
75691;SDS011;64307;52.508;6.090;2023-02-10T14:19:49;9.00;;;3.58;;
75691;SDS011;64307;52.508;6.090;2023-02-10T14:22:26;18.45;;;3.95;;
75691;SDS011;64307;52.508;6.090;2023-02-10T14:25:14;11.00;;;3.15;;
75691;SDS011;64307;52.508;6.090;2023-02-10T14:27:49;19.98;;;3.55;;
75691;SDS011;64307;52.508;6.090;2023-02-10T14:30:19;13.05;;;3.40;;
75691;SDS011;64307;52.508;6.090;2023-02-10T14:32:51;13.95;;;3.85;;
75691;SDS011;64307;52.508;6.090;2023-02-10T14:35:18;13.02;;;4.47;;
75691;SDS011;64307;52.508;6.090;2023-02-10T14:37:49;14.73;;;4.22;;
75691;SDS011;64307;52.508;6.090;2023-02-10T14:40:16;14.15;;;4.38;;
75691;SDS011;64307;52.508;6.090;2023-02-10T14:42:43;12.73;;;4.15;;
75691;SDS011;64307;52.508;6.090;2023-02-10T14:45:19;15.82;;;4.70;;
75691;SDS011;64307;52.508;6.090;2023-02-10T14:47:47;15.82;;;4.78;;
75691;SDS011;64307;52.508;6.090;2023-02-10T14:50:26;11.55;;;4.75;;
75691;SDS011;64307;52.508;6.090;2023-02-10T14:52:54;17.92;;;5.28;;
75691;SDS011;64307;52.508;6.090;2023-02-10T14:57:50;16.92;;;3.90;;
75691;SDS011;64307;52.508;6.090;2023-02-10T15:00:16;15.88;;;4.40;;
75691;SDS011;64307;52.508;6.090;2023-02-10T15:02:46;16.27;;;4.30;;
75691;SDS011;64307;52.508;6.090;2023-02-10T15:05:16;12.77;;;4.63;;
75691;SDS011;64307;52.508;6.090;2023-02-10T15:07:45;14.68;;;4.32;;
75691;SDS011;64307;52.508;6.090;2023-02-10T15:10:28;9.65;;;4.05;;
75691;SDS011;64307;52.508;6.090;2023-02-10T15:12:58;14.23;;;4.25;;
75691;SDS011;64307;52.508;6.090;2023-02-10T15:18:00;15.02;;;5.20;;
75691;SDS011;64307;52.508;6.090;2023-02-10T15:20:35;13.18;;;4.47;;
75691;SDS011;64307;52.508;6.090;2023-02-10T15:28:18;12.18;;;5.10;;
75691;SDS011;64307;52.508;6.090;2023-02-10T15:30:46;15.80;;;5.00;;
75691;SDS011;64307;52.508;6.090;2023-02-10T15:33:23;16.75;;;5.65;;
75691;SDS011;64307;52.508;6.090;2023-02-10T15:38:45;15.35;;;6.22;;
75691;SDS011;64307;52.508;6.090;2023-02-10T15:46:43;19.40;;;7.95;;
75691;SDS011;64307;52.508;6.090;2023-02-10T15:49:10;21.27;;;7.57;;
75691;SDS011;64307;52.508;6.090;2023-02-10T15:52:10;20.90;;;7.53;;
75691;SDS011;64307;52.508;6.090;2023-02-10T15:54:29;17.85;;;8.40;;
75691;SDS011;64307;52.508;6.090;2023-02-10T15:56:58;16.65;;;7.10;;
75691;SDS011;64307;52.508;6.090;2023-02-10T15:59:25;19.75;;;7.28;;
75691;SDS011;64307;52.508;6.090;2023-02-10T16:02:06;22.48;;;8.30;;
75691;SDS011;64307;52.508;6.090;2023-02-10T16:04:34;22.83;;;8.68;;
75691;SDS011;64307;52.508;6.090;2023-02-10T16:07:00;19.55;;;8.88;;
75691;SDS011;64307;52.508;6.090;2023-02-10T16:09:27;23.83;;;9.82;;
75691;SDS011;64307;52.508;6.090;2023-02-10T16:11:54;20.42;;;8.95;;
75691;SDS011;64307;52.508;6.090;2023-02-10T16:14:19;21.63;;;9.13;;
75691;SDS011;64307;52.508;6.090;2023-02-10T16:16:55;21.23;;;9.10;;
75691;SDS011;64307;52.508;6.090;2023-02-10T16:19:23;25.13;;;10.18;;
75691;SDS011;64307;52.508;6.090;2023-02-10T16:21:50;24.67;;;10.27;;
75691;SDS011;64307;52.508;6.090;2023-02-10T16:24:20;23.60;;;10.40;;
75691;SDS011;64307;52.508;6.090;2023-02-10T16:26:46;31.02;;;12.05;;
75691;SDS011;64307;52.508;6.090;2023-02-10T16:29:20;28.85;;;12.30;;
75691;SDS011;64307;52.508;6.090;2023-02-10T16:31:47;30.15;;;12.27;;
75691;SDS011;64307;52.508;6.090;2023-02-10T16:34:14;28.73;;;13.07;;
75691;SDS011;64307;52.508;6.090;2023-02-10T16:36:39;27.98;;;14.15;;
75691;SDS011;64307;52.508;6.090;2023-02-10T16:41:35;32.17;;;14.63;;
75691;SDS011;64307;52.508;6.090;2023-02-10T16:44:01;35.15;;;14.60;;
75691;SDS011;64307;52.508;6.090;2023-02-10T16:46:26;34.83;;;15.38;;
75691;SDS011;64307;52.508;6.090;2023-02-10T16:48:51;32.65;;;15.82;;
75691;SDS011;64307;52.508;6.090;2023-02-10T16:51:17;32.70;;;15.45;;
75691;SDS011;64307;52.508;6.090;2023-02-10T16:53:42;34.75;;;16.27;;
75691;SDS011;64307;52.508;6.090;2023-02-10T16:56:17;35.13;;;16.42;;
75691;SDS011;64307;52.508;6.090;2023-02-10T16:58:42;39.03;;;16.38;;
75691;SDS011;64307;52.508;6.090;2023-02-10T17:01:08;35.55;;;16.42;;
75691;SDS011;64307;52.508;6.090;2023-02-10T17:03:33;38.85;;;17.10;;
75691;SDS011;64307;52.508;6.090;2023-02-10T17:05:58;33.40;;;15.60;;
75691;SDS011;64307;52.508;6.090;2023-02-10T17:08:25;38.58;;;17.00;;
75691;SDS011;64307;52.508;6.090;2023-02-10T17:10:51;34.45;;;16.65;;
75691;SDS011;64307;52.508;6.090;2023-02-10T17:13:19;39.47;;;16.75;;
75691;SDS011;64307;52.508;6.090;2023-02-10T17:15:44;36.80;;;16.27;;